createdAt,value
2018-07-10T00:01:42.054Z,19.20
2018-07-10T00:04:30.715Z,19.10
2018-07-10T00:11:53.408Z,19.00
2018-07-10T00:14:26.049Z,19.00
2018-07-10T00:17:06.105Z,19.00
2018-07-10T00:19:38.662Z,19.00
2018-07-10T00:22:07.720Z,19.00
2018-07-10T00:24:37.059Z,19.00
2018-07-10T00:55:05.633Z,18.30
2018-07-10T00:57:35.226Z,18.20
2018-07-10T01:00:04.881Z,18.10
2018-07-10T01:02:34.313Z,18.10
2018-07-10T01:05:08.370Z,18.00
2018-07-10T01:07:38.519Z,18.10
2018-07-10T01:10:07.610Z,18.00
2018-07-10T01:12:36.683Z,17.90
2018-07-10T01:15:08.534Z,17.90
2018-07-10T01:17:38.146Z,18.00
2018-07-10T01:20:07.502Z,18.00
2018-07-10T01:25:12.375Z,18.00
2018-07-10T01:27:41.695Z,17.90
2018-07-10T01:30:12.245Z,17.90
2018-07-10T01:32:42.226Z,17.80
2018-07-10T01:35:11.425Z,17.80
2018-07-10T01:37:41.569Z,17.80
2018-07-10T01:40:12.238Z,17.70
2018-07-10T01:42:41.864Z,17.70
2018-07-10T01:45:12.630Z,17.60
2018-07-10T01:47:42.366Z,17.60
2018-07-10T01:50:15.107Z,17.50
2018-07-10T01:52:44.257Z,17.40
2018-07-10T01:55:15.038Z,17.50
2018-07-10T02:02:18.263Z,17.50
2018-07-10T02:04:47.394Z,17.50
2018-07-10T02:07:25.798Z,17.40
2018-07-10T02:12:48.611Z,17.30
2018-07-10T02:15:22.226Z,17.40
2018-07-10T02:17:51.751Z,17.30
2018-07-10T02:20:25.741Z,17.40
2018-07-10T02:22:57.231Z,17.40
2018-07-10T02:27:58.053Z,17.30
2018-07-10T02:30:31.703Z,17.30
2018-07-10T02:33:01.088Z,17.40
2018-07-10T02:35:34.548Z,17.40
2018-07-10T02:38:04.395Z,17.30
2018-07-10T02:40:37.612Z,17.30
2018-07-10T02:43:07.471Z,17.20
2018-07-10T02:45:40.123Z,17.20
2018-07-10T02:48:08.970Z,17.30
2018-07-10T02:50:46.373Z,17.30
2018-07-10T02:57:55.516Z,17.30
2018-07-10T03:00:35.219Z,17.30
2018-07-10T03:03:04.089Z,17.20
2018-07-10T03:05:33.756Z,17.20
2018-07-10T03:10:31.403Z,17.20
2018-07-10T03:13:04.379Z,17.10
2018-07-10T03:15:34.047Z,17.10
2018-07-10T03:22:42.142Z,17.20
2018-07-10T03:25:11.322Z,17.30
2018-07-10T03:27:40.582Z,17.20
2018-07-10T03:30:09.894Z,17.10
2018-07-10T03:32:40.821Z,17.10
2018-07-10T03:35:09.725Z,17.10
2018-07-10T03:37:38.599Z,17.10
2018-07-10T03:40:07.778Z,17.00
2018-07-10T03:42:48.436Z,17.00
2018-07-10T03:45:18.112Z,17.00
2018-07-10T03:52:23.652Z,17.00
2018-07-10T03:54:53.705Z,16.90
2018-07-10T04:02:03.310Z,17.00
2018-07-10T04:04:32.754Z,16.90
2018-07-10T04:07:02.254Z,16.90
2018-07-10T04:09:31.257Z,16.90
2018-07-10T04:12:00.661Z,16.90
2018-07-10T04:14:29.602Z,16.90
2018-07-10T04:16:58.970Z,16.80
2018-07-10T04:19:29.205Z,16.80
2018-07-10T04:22:00.077Z,16.80
2018-07-10T04:24:29.822Z,16.90
2018-07-10T04:27:05.470Z,16.90
2018-07-10T04:29:41.570Z,16.90
2018-07-10T04:32:14.037Z,16.80
2018-07-10T04:34:44.514Z,16.80
2018-07-10T04:37:14.361Z,16.80
2018-07-10T04:39:44.579Z,16.80
2018-07-10T04:42:40.684Z,16.80
2018-07-10T04:45:12.670Z,16.80
2018-07-10T04:47:49.436Z,16.80
2018-07-10T04:50:30.015Z,16.80
2018-07-10T04:53:06.582Z,16.80
2018-07-10T04:55:43.881Z,16.70
2018-07-10T04:58:17.012Z,16.60
2018-07-10T05:00:50.834Z,16.70
2018-07-10T05:03:20.142Z,16.70
2018-07-10T05:05:50.610Z,16.70
2018-07-10T05:08:20.899Z,16.70
2018-07-10T05:10:54.732Z,16.60
2018-07-10T05:13:24.868Z,16.70
2018-07-10T05:16:02.180Z,16.70
2018-07-10T05:18:31.649Z,16.70
2018-07-10T05:21:05.942Z,16.60
2018-07-10T05:23:37.175Z,16.70
2018-07-10T05:26:06.247Z,16.70
2018-07-10T05:28:35.143Z,16.70
2018-07-10T05:31:04.631Z,16.80
2018-07-10T05:33:34.689Z,16.90
2018-07-10T05:36:11.290Z,16.90
2018-07-10T05:38:44.940Z,16.90
2018-07-10T05:41:19.044Z,17.00
2018-07-10T05:43:51.002Z,17.00
2018-07-10T05:46:22.173Z,17.00
2018-07-10T05:48:59.185Z,17.00
2018-07-10T05:51:32.814Z,16.90
2018-07-10T05:54:06.057Z,17.00
2018-07-10T05:56:35.186Z,17.10
2018-07-10T05:59:05.636Z,17.00
2018-07-10T06:01:35.836Z,17.10
2018-07-10T06:04:04.962Z,17.10
2018-07-10T06:06:34.084Z,17.10
2018-07-10T06:09:03.158Z,17.10
2018-07-10T06:11:32.696Z,17.20
2018-07-10T06:14:02.067Z,17.10
2018-07-10T06:16:30.956Z,17.10
2018-07-10T06:19:00.130Z,17.10
2018-07-10T06:21:36.294Z,17.00
2018-07-10T06:24:10.693Z,17.00
2018-07-10T06:26:44.918Z,17.10
2018-07-10T06:29:20.255Z,17.20
2018-07-10T06:31:52.094Z,17.20
2018-07-10T06:34:26.204Z,17.20
2018-07-10T06:37:04.213Z,17.30
2018-07-10T06:39:40.552Z,17.30
2018-07-10T06:42:15.524Z,17.30
2018-07-10T06:44:47.896Z,17.30
2018-07-10T06:47:20.386Z,17.30
2018-07-10T06:49:50.195Z,17.40
2018-07-10T06:52:21.336Z,17.40
2018-07-10T06:55:12.371Z,17.50
2018-07-10T06:57:57.089Z,17.60
2018-07-10T07:00:26.593Z,17.60
2018-07-10T07:02:57.578Z,17.70
2018-07-10T07:05:26.736Z,17.60
2018-07-10T07:07:56.227Z,17.60
2018-07-10T07:10:26.762Z,17.60
2018-07-10T07:12:59.100Z,17.60
2018-07-10T07:15:28.191Z,17.70
2018-07-10T07:17:59.719Z,17.70
2018-07-10T07:20:28.689Z,17.70
2018-07-10T07:23:06.360Z,17.80
2018-07-10T07:25:35.397Z,17.70
2018-07-10T07:28:06.589Z,17.70
2018-07-10T07:30:37.046Z,17.70
2018-07-10T07:33:09.448Z,17.60
2018-07-10T07:35:39.563Z,17.70
2018-07-10T07:38:17.167Z,17.80
2018-07-10T07:40:46.699Z,17.80
2018-07-10T07:43:34.833Z,17.80
2018-07-10T07:46:04.738Z,17.80
2018-07-10T07:48:34.319Z,17.70
2018-07-10T07:51:03.229Z,17.70
2018-07-10T07:53:32.676Z,17.60
2018-07-10T07:56:02.401Z,17.70
2018-07-10T07:58:32.452Z,17.70
2018-07-10T08:01:03.822Z,17.70
2018-07-10T08:03:34.329Z,17.70
2018-07-10T08:06:04.331Z,17.80
2018-07-10T08:08:34.485Z,18.00
2018-07-10T08:11:06.143Z,18.20
2018-07-10T08:13:35.493Z,18.40
2018-07-10T08:16:04.718Z,18.50
2018-07-10T08:18:34.482Z,18.60
2018-07-10T08:21:04.778Z,18.70
2018-07-10T08:23:33.922Z,18.80
2018-07-10T08:26:03.357Z,18.90
2018-07-10T08:28:36.714Z,18.80
2018-07-10T08:31:06.562Z,18.80
2018-07-10T08:33:38.492Z,18.80
2018-07-10T08:37:10.301Z,18.90
2018-07-10T08:39:42.277Z,18.90
2018-07-10T08:42:13.013Z,18.80
2018-07-10T08:44:44.267Z,18.80
2018-07-10T08:47:13.772Z,18.90
2018-07-10T08:49:47.322Z,18.90
2018-07-10T08:52:16.663Z,18.90
2018-07-10T08:54:53.170Z,19.00
2018-07-10T08:57:22.238Z,18.90
2018-07-10T08:59:52.416Z,19.00
2018-07-10T09:02:21.687Z,18.90
2018-07-10T09:04:55.807Z,19.00
2018-07-10T09:07:27.182Z,19.00
2018-07-10T09:09:56.831Z,19.00
2018-07-10T09:12:26.744Z,18.90
2018-07-10T09:15:03.192Z,19.00
2018-07-10T09:17:32.673Z,19.00
2018-07-10T09:20:05.699Z,19.00
2018-07-10T09:22:35.509Z,18.90
2018-07-10T09:25:07.187Z,18.80
2018-07-10T09:27:36.700Z,18.80
2018-07-10T09:30:09.160Z,18.70
2018-07-10T09:32:43.771Z,18.70
2018-07-10T09:35:12.826Z,18.70
2018-07-10T09:37:46.614Z,18.70
2018-07-10T09:40:18.280Z,18.70
2018-07-10T09:42:54.710Z,19.10
2018-07-10T09:45:28.319Z,19.50
2018-07-10T09:47:58.185Z,19.80
2018-07-10T09:50:27.396Z,20.40
2018-07-10T09:52:56.717Z,20.90
2018-07-10T09:55:25.672Z,21.10
2018-07-10T09:57:57.275Z,21.30
2018-07-10T10:00:31.652Z,21.50
2018-07-10T10:03:02.108Z,21.90
2018-07-10T10:05:37.089Z,22.00
2018-07-10T10:08:11.430Z,21.60
2018-07-10T10:10:42.200Z,21.30
2018-07-10T10:13:17.208Z,21.10
2018-07-10T10:15:49.167Z,21.00
2018-07-10T10:18:20.707Z,20.80
2018-07-10T10:20:49.766Z,20.60
2018-07-10T10:25:55.360Z,20.30
2018-07-10T10:28:45.308Z,20.20
2018-07-10T10:31:14.855Z,20.10
2018-07-10T10:33:45.445Z,20.00
2018-07-10T10:36:15.609Z,19.90
2018-07-10T10:38:46.953Z,19.80
2018-07-10T10:41:17.410Z,19.80
2018-07-10T10:43:47.706Z,19.80
2018-07-10T10:46:20.184Z,19.80
2018-07-10T10:48:49.622Z,19.70
2018-07-10T10:51:22.421Z,19.50
2018-07-10T10:53:52.180Z,19.50
2018-07-10T10:56:21.954Z,19.30
2018-07-10T10:58:54.830Z,19.20
2018-07-10T11:01:24.096Z,19.20
2018-07-10T11:03:56.197Z,19.20
2018-07-10T11:06:27.572Z,19.20
2018-07-10T11:08:59.243Z,19.20
2018-07-10T11:11:30.258Z,19.20
2018-07-10T11:14:05.716Z,19.20
2018-07-10T11:16:36.180Z,19.20
2018-07-10T11:19:17.861Z,19.10
2018-07-10T11:21:56.757Z,19.00
2018-07-10T11:24:25.789Z,19.10
2018-07-10T11:26:57.336Z,19.10
2018-07-10T11:29:26.734Z,19.10
2018-07-10T11:31:55.848Z,19.10
2018-07-10T11:34:41.262Z,19.00
2018-07-10T11:37:18.468Z,19.00
2018-07-10T11:39:51.653Z,19.10
2018-07-10T11:42:22.391Z,19.00
2018-07-10T11:44:51.573Z,18.90
2018-07-10T11:47:23.830Z,18.90
2018-07-10T11:49:54.222Z,18.90
2018-07-10T11:52:23.211Z,18.90
2018-07-10T11:54:52.713Z,19.00
2018-07-10T11:57:25.418Z,19.00
2018-07-10T11:59:56.284Z,18.90
2018-07-10T12:02:36.637Z,18.80
2018-07-10T12:05:06.143Z,18.80
2018-07-10T12:07:38.363Z,18.80
2018-07-10T12:13:01.305Z,18.80
2018-07-10T12:15:34.339Z,18.90
2018-07-10T12:18:03.388Z,19.00
2018-07-10T12:20:38.252Z,19.00
2018-07-10T12:23:08.791Z,19.20
2018-07-10T12:25:42.612Z,19.20
2018-07-10T12:28:13.730Z,19.10
2018-07-10T12:30:44.430Z,19.10
2018-07-10T12:33:14.118Z,19.10
2018-07-10T12:35:43.029Z,19.00
2018-07-10T12:38:13.411Z,19.10
2018-07-10T12:40:45.514Z,18.80
2018-07-10T12:43:14.533Z,18.60
2018-07-10T12:45:52.204Z,18.60
2018-07-10T12:48:21.268Z,18.70
2018-07-10T12:50:52.475Z,18.70
2018-07-10T12:53:23.615Z,18.60
2018-07-10T12:55:53.244Z,18.50
2018-07-10T12:58:26.283Z,18.40
2018-07-10T13:01:04.425Z,18.40
2018-07-10T13:03:33.737Z,18.30
2018-07-10T13:06:03.659Z,18.20
2018-07-10T13:08:32.637Z,18.10
2018-07-10T13:11:02.895Z,18.10
2018-07-10T13:13:31.977Z,18.10
2018-07-10T13:16:06.570Z,18.10
2018-07-10T13:18:38.424Z,18.10
2018-07-10T13:21:08.337Z,17.90
2018-07-10T13:23:38.410Z,18.00
2018-07-10T13:26:12.710Z,17.90
2018-07-10T13:28:41.685Z,17.90
2018-07-10T13:31:13.225Z,18.00
2018-07-10T13:33:43.184Z,18.10
2018-07-10T13:36:16.729Z,18.20
2018-07-10T13:38:46.343Z,18.30
2018-07-10T13:41:23.173Z,18.40
2018-07-10T13:43:52.444Z,18.40
2018-07-10T13:46:21.721Z,18.50
2018-07-10T13:48:51.030Z,18.40
2018-07-10T13:51:24.298Z,18.40
2018-07-10T13:53:54.200Z,18.30
2018-07-10T13:56:27.724Z,18.20
2018-07-10T13:58:57.697Z,18.20
2018-07-10T14:01:27.245Z,18.20
2018-07-10T14:03:56.295Z,18.20
2018-07-10T14:06:30.152Z,18.40
2018-07-10T14:09:00.175Z,18.60
2018-07-10T14:11:36.182Z,18.60
2018-07-10T14:14:06.732Z,18.50
2018-07-10T14:16:36.214Z,18.60
2018-07-10T14:19:07.892Z,18.50
2018-07-10T14:21:39.225Z,18.50
2018-07-10T14:24:08.336Z,18.50
2018-07-10T14:26:40.649Z,18.40
2018-07-10T14:29:10.190Z,18.30
2018-07-10T14:31:43.572Z,18.30
2018-07-10T14:34:12.726Z,18.20
2018-07-10T14:36:45.990Z,18.20
2018-07-10T14:39:15.253Z,18.20
2018-07-10T14:41:49.057Z,18.30
2018-07-10T14:44:18.720Z,18.40
2018-07-10T14:46:52.256Z,18.40
2018-07-10T14:49:23.405Z,18.40
2018-07-10T14:51:52.892Z,18.30
2018-07-10T14:54:22.167Z,18.20
2018-07-10T14:57:13.415Z,18.20
2018-07-10T14:59:42.969Z,18.10
2018-07-10T15:02:13.491Z,18.10
2018-07-10T15:04:43.105Z,18.10
2018-07-10T15:07:13.556Z,18.10
2018-07-10T15:09:43.469Z,17.90
2018-07-10T15:12:13.237Z,17.80
2018-07-10T15:14:43.789Z,17.80
2018-07-10T15:17:18.476Z,17.80
2018-07-10T15:19:49.064Z,17.80
2018-07-10T15:22:17.977Z,17.70
2018-07-10T15:24:47.257Z,17.60
2018-07-10T15:27:16.476Z,17.40
2018-07-10T15:29:45.656Z,17.50
2018-07-10T15:32:17.797Z,17.40
2018-07-10T15:34:50.586Z,17.40
2018-07-10T15:37:21.973Z,17.40
2018-07-10T15:39:51.459Z,17.30
2018-07-10T15:42:24.716Z,17.30
2018-07-10T15:44:54.212Z,17.30
2018-07-10T15:47:26.757Z,17.20
2018-07-10T15:49:57.177Z,17.20
2018-07-10T15:52:31.450Z,17.30
2018-07-10T15:55:02.357Z,17.30
2018-07-10T15:57:32.213Z,17.30
2018-07-10T16:00:06.073Z,17.30
2018-07-10T16:02:37.094Z,17.40
2018-07-10T16:05:06.847Z,17.40
2018-07-10T16:07:39.245Z,17.40
2018-07-10T16:10:09.289Z,17.40
2018-07-10T16:12:38.957Z,17.50
2018-07-10T16:15:08.749Z,17.50
2018-07-10T16:17:39.411Z,17.40
2018-07-10T16:20:11.289Z,17.40
2018-07-10T16:22:44.137Z,17.40
2018-07-10T16:25:18.407Z,17.40
2018-07-10T16:27:48.283Z,17.30
2018-07-10T16:30:22.684Z,17.40
2018-07-10T16:32:54.271Z,17.40
2018-07-10T16:35:27.321Z,17.40
2018-07-10T16:37:57.475Z,17.40
2018-07-10T16:40:27.458Z,17.50
2018-07-10T16:42:57.718Z,17.50
2018-07-10T16:45:39.308Z,17.50
2018-07-10T16:48:22.240Z,17.50
2018-07-10T16:51:28.010Z,17.40
2018-07-10T16:54:02.163Z,17.30
2018-07-10T16:56:32.823Z,17.30
2018-07-10T16:59:02.847Z,17.40
2018-07-10T17:01:34.449Z,17.40
2018-07-10T17:04:05.014Z,17.40
2018-07-10T17:06:34.678Z,17.30
2018-07-10T17:11:41.958Z,17.30
2018-07-10T17:14:14.912Z,17.40
2018-07-10T17:16:44.659Z,17.30
2018-07-10T17:19:13.974Z,17.40
2018-07-10T17:21:43.518Z,17.40
2018-07-10T17:24:14.519Z,17.30
2018-07-10T17:26:44.707Z,17.30
2018-07-10T17:29:15.401Z,17.40
2018-07-10T17:31:46.111Z,17.40
2018-07-10T17:34:19.307Z,17.40
2018-07-10T17:36:50.498Z,17.30
2018-07-10T17:39:22.114Z,17.30
2018-07-10T17:41:51.741Z,17.30
2018-07-10T17:44:20.726Z,17.30
2018-07-10T17:46:53.922Z,17.20
2018-07-10T17:49:24.217Z,17.20
2018-07-10T17:51:54.333Z,17.20
2018-07-10T17:54:27.707Z,17.20
2018-07-10T17:57:01.172Z,17.10
2018-07-10T17:59:31.655Z,17.10
2018-07-10T18:02:03.335Z,17.20
2018-07-10T18:04:33.231Z,17.20
2018-07-10T18:07:04.462Z,17.20
2018-07-10T18:09:40.383Z,17.30
2018-07-10T18:12:11.317Z,17.40
2018-07-10T18:14:41.548Z,17.40
2018-07-10T18:17:13.734Z,17.40
2018-07-10T18:19:45.856Z,17.40
2018-07-10T18:22:15.487Z,17.40
2018-07-10T18:24:46.189Z,17.30
2018-07-10T18:27:16.715Z,17.30
2018-07-10T18:29:45.754Z,17.30
2018-07-10T18:32:16.338Z,17.30
2018-07-10T18:34:45.929Z,17.30
2018-07-10T18:37:16.975Z,17.40
2018-07-10T18:42:27.329Z,17.40
2018-07-10T18:45:00.907Z,17.30
2018-07-10T18:47:33.182Z,17.30
2018-07-10T18:50:05.181Z,17.30
2018-07-10T18:52:35.219Z,17.30
2018-07-10T18:55:07.613Z,17.30
2018-07-10T18:58:00.321Z,17.30
2018-07-10T19:11:51.711Z,17.40
2018-07-10T19:14:23.494Z,17.30
2018-07-10T19:16:53.732Z,17.30
2018-07-10T19:19:24.121Z,17.40
2018-07-10T19:22:09.056Z,17.40
2018-07-10T19:24:40.520Z,17.40
2018-07-10T19:27:30.612Z,17.50
2018-07-10T19:30:16.373Z,17.40
2018-07-10T19:32:46.336Z,17.40
2018-07-10T19:35:21.434Z,17.30
2018-07-10T19:37:52.733Z,17.30
2018-07-10T19:40:23.408Z,17.30
2018-07-10T19:42:53.146Z,17.30
2018-07-10T19:45:24.536Z,17.30
2018-07-10T19:47:55.776Z,17.30
2018-07-10T19:50:39.519Z,17.30
2018-07-10T19:53:08.722Z,17.30
2018-07-10T19:55:40.248Z,17.40
2018-07-10T19:58:41.639Z,17.40
2018-07-10T20:01:31.315Z,17.40
2018-07-10T20:04:04.430Z,17.40
2018-07-10T20:08:45.712Z,17.40
2018-07-10T20:11:22.724Z,17.50
2018-07-10T20:13:54.108Z,17.50
2018-07-10T20:21:20.266Z,17.40
2018-07-10T20:24:00.299Z,17.40
2018-07-10T20:45:20.388Z,17.50
2018-07-10T20:48:04.124Z,17.40
2018-07-10T20:50:44.076Z,17.40
2018-07-10T20:53:29.916Z,17.40
2018-07-10T20:56:09.463Z,17.30
2018-07-10T20:58:46.743Z,17.30
2018-07-10T21:01:18.221Z,17.30
2018-07-10T21:03:51.676Z,17.30
2018-07-10T21:07:04.723Z,17.30
2018-07-10T21:09:45.200Z,17.30
2018-07-10T21:12:19.741Z,17.30
2018-07-10T21:15:12.075Z,17.30
2018-07-10T21:18:01.957Z,17.30
2018-07-10T21:20:45.628Z,17.20
2018-07-10T21:23:28.167Z,17.20
2018-07-10T21:26:05.702Z,17.10
2018-07-10T21:28:44.384Z,17.10
2018-07-10T21:31:43.712Z,17.10
2018-07-10T21:34:24.732Z,17.00
2018-07-10T21:37:17.514Z,17.00
2018-07-10T21:40:58.352Z,17.00
2018-07-10T21:43:43.543Z,16.90
2018-07-10T21:46:25.375Z,16.90
2018-07-10T21:49:05.235Z,17.00
2018-07-10T21:51:37.051Z,17.00
2018-07-10T21:54:06.279Z,17.00
2018-07-10T21:56:35.988Z,17.00
2018-07-10T21:59:11.274Z,17.00
2018-07-10T22:01:48.455Z,17.00
2018-07-10T22:04:19.189Z,16.90
2018-07-10T22:06:52.172Z,16.90
2018-07-10T22:09:23.074Z,16.80
2018-07-10T22:11:53.654Z,16.80
2018-07-10T22:14:25.085Z,16.80
2018-07-10T22:16:54.396Z,16.80
2018-07-10T22:19:30.350Z,16.70
2018-07-10T22:22:01.446Z,16.70
2018-07-10T22:24:33.168Z,16.70
2018-07-10T22:27:04.306Z,16.80
2018-07-10T22:32:24.455Z,16.80
2018-07-10T22:34:54.442Z,16.80
2018-07-10T22:37:26.606Z,16.80
2018-07-10T22:40:06.160Z,16.80
2018-07-10T22:42:36.697Z,16.80
2018-07-10T22:45:08.690Z,16.80
2018-07-10T22:47:41.067Z,16.80
2018-07-10T22:50:16.426Z,16.80
2018-07-10T22:53:06.092Z,16.70
2018-07-10T22:55:51.723Z,16.70
2018-07-10T22:58:24.673Z,16.70
2018-07-10T23:00:54.025Z,16.70
2018-07-10T23:03:25.422Z,16.70
2018-07-10T23:05:55.798Z,16.70
2018-07-10T23:08:34.492Z,16.80
2018-07-10T23:11:17.264Z,16.70
2018-07-10T23:13:48.267Z,16.70
2018-07-10T23:16:19.974Z,16.70
2018-07-10T23:18:50.673Z,16.60
2018-07-10T23:21:20.541Z,16.60
2018-07-10T23:23:49.670Z,16.60
2018-07-10T23:26:19.857Z,16.50
2018-07-10T23:28:53.714Z,16.50
2018-07-10T23:31:29.270Z,16.50
2018-07-10T23:34:31.701Z,16.40
2018-07-10T23:37:01.508Z,16.30
2018-07-10T23:39:50.641Z,16.20
2018-07-10T23:42:31.949Z,16.20
2018-07-10T23:45:06.182Z,16.20
2018-07-10T23:47:36.910Z,16.10
2018-07-10T23:50:17.692Z,16.10
2018-07-10T23:52:58.184Z,16.10
2018-07-10T23:55:29.436Z,16.10
2018-07-10T23:57:58.631Z,16.10
